Craters of the Moon National, Idaho
Current Conditions -  °F | °C
As of 6:47 AM on Monday 24 Nov 2014 (Local Time) from KSUN Reporting Station
Clear Clear  
Wind Chill: 14°   Ceiling: Unl
Heat Index: 23°   Visibility: 10mi
Dew Point: 14°   Wind: 8mph
Humidity: 68%   Direction: 300°WNW
Pressure: 30.23"   Gusts: NA
Location:  43.4953°N, 113.317°W
Report Text: KSUN 241347Z 30007KT 10SM SKC M05/M10 A3023
Loading
Personal Weather Stations






























Interactive Weather Map New forecast layout! Learn more

10-Day Weather Forecast

Advertisements
Track Severe Weather on mobile